sensor_id;sensor_type;location;lat;lon;timestamp;P1;durP1;ratioP1;P2;durP2;ratioP2
11034;SDS011;5571;48.110;-1.706;2022-07-23T00:00:07;7.47;;;2.47;;
11034;SDS011;5571;48.110;-1.706;2022-07-23T00:02:33;7.70;;;3.00;;
11034;SDS011;5571;48.110;-1.706;2022-07-23T00:04:58;7.33;;;2.80;;
11034;SDS011;5571;48.110;-1.706;2022-07-23T00:07:24;10.27;;;3.07;;
11034;SDS011;5571;48.110;-1.706;2022-07-23T00:09:49;9.03;;;2.93;;
11034;SDS011;5571;48.110;-1.706;2022-07-23T00:12:15;8.67;;;2.90;;
11034;SDS011;5571;48.110;-1.706;2022-07-23T00:14:40;9.47;;;3.13;;
11034;SDS011;5571;48.110;-1.706;2022-07-23T00:17:05;8.70;;;3.13;;
11034;SDS011;5571;48.110;-1.706;2022-07-23T00:19:31;7.67;;;3.37;;
11034;SDS011;5571;48.110;-1.706;2022-07-23T00:21:56;7.23;;;3.20;;
11034;SDS011;5571;48.110;-1.706;2022-07-23T00:24:21;8.33;;;3.30;;
11034;SDS011;5571;48.110;-1.706;2022-07-23T00:26:47;8.80;;;3.30;;
11034;SDS011;5571;48.110;-1.706;2022-07-23T00:29:12;8.33;;;3.00;;
11034;SDS011;5571;48.110;-1.706;2022-07-23T00:31:38;8.13;;;3.07;;
11034;SDS011;5571;48.110;-1.706;2022-07-23T00:34:03;7.17;;;3.03;;
11034;SDS011;5571;48.110;-1.706;2022-07-23T00:36:28;7.50;;;2.93;;
11034;SDS011;5571;48.110;-1.706;2022-07-23T00:38:56;9.07;;;3.10;;
11034;SDS011;5571;48.110;-1.706;2022-07-23T00:41:21;9.90;;;3.23;;
11034;SDS011;5571;48.110;-1.706;2022-07-23T00:43:47;10.37;;;3.03;;
11034;SDS011;5571;48.110;-1.706;2022-07-23T00:46:12;6.23;;;3.10;;
11034;SDS011;5571;48.110;-1.706;2022-07-23T00:48:37;6.13;;;2.77;;
11034;SDS011;5571;48.110;-1.706;2022-07-23T00:51:03;7.13;;;3.07;;
11034;SDS011;5571;48.110;-1.706;2022-07-23T00:53:29;7.73;;;3.30;;
11034;SDS011;5571;48.110;-1.706;2022-07-23T00:55:57;11.53;;;3.20;;
11034;SDS011;5571;48.110;-1.706;2022-07-23T00:58:23;11.33;;;3.17;;
11034;SDS011;5571;48.110;-1.706;2022-07-23T01:00:49;9.07;;;3.07;;
11034;SDS011;5571;48.110;-1.706;2022-07-23T01:03:14;11.73;;;3.50;;
11034;SDS011;5571;48.110;-1.706;2022-07-23T01:05:40;10.13;;;3.50;;
11034;SDS011;5571;48.110;-1.706;2022-07-23T01:08:05;7.47;;;3.23;;
11034;SDS011;5571;48.110;-1.706;2022-07-23T01:10:31;6.17;;;2.90;;
11034;SDS011;5571;48.110;-1.706;2022-07-23T01:12:57;9.63;;;3.27;;
11034;SDS011;5571;48.110;-1.706;2022-07-23T01:15:23;9.87;;;3.30;;
11034;SDS011;5571;48.110;-1.706;2022-07-23T01:17:49;5.63;;;3.30;;
11034;SDS011;5571;48.110;-1.706;2022-07-23T01:20:15;5.73;;;3.53;;
11034;SDS011;5571;48.110;-1.706;2022-07-23T01:22:40;9.57;;;3.40;;
11034;SDS011;5571;48.110;-1.706;2022-07-23T01:25:06;10.70;;;3.67;;
11034;SDS011;5571;48.110;-1.706;2022-07-23T01:27:31;7.43;;;3.43;;
11034;SDS011;5571;48.110;-1.706;2022-07-23T01:29:57;9.83;;;3.60;;
11034;SDS011;5571;48.110;-1.706;2022-07-23T01:32:25;8.90;;;3.83;;
11034;SDS011;5571;48.110;-1.706;2022-07-23T01:34:50;12.07;;;3.43;;
11034;SDS011;5571;48.110;-1.706;2022-07-23T01:37:16;6.37;;;3.43;;
11034;SDS011;5571;48.110;-1.706;2022-07-23T01:39:41;7.60;;;3.43;;
11034;SDS011;5571;48.110;-1.706;2022-07-23T01:42:07;12.80;;;3.60;;
11034;SDS011;5571;48.110;-1.706;2022-07-23T01:44:32;10.33;;;3.37;;
11034;SDS011;5571;48.110;-1.706;2022-07-23T01:46:57;9.20;;;4.00;;
11034;SDS011;5571;48.110;-1.706;2022-07-23T01:49:23;8.80;;;3.57;;
11034;SDS011;5571;48.110;-1.706;2022-07-23T01:51:48;6.27;;;3.30;;
11034;SDS011;5571;48.110;-1.706;2022-07-23T01:54:28;8.00;;;4.10;;
11034;SDS011;5571;48.110;-1.706;2022-07-23T01:56:56;7.27;;;3.80;;
11034;SDS011;5571;48.110;-1.706;2022-07-23T01:59:22;8.00;;;3.83;;
11034;SDS011;5571;48.110;-1.706;2022-07-23T02:01:48;6.00;;;3.50;;
11034;SDS011;5571;48.110;-1.706;2022-07-23T02:04:15;12.77;;;4.13;;
11034;SDS011;5571;48.110;-1.706;2022-07-23T02:06:41;8.50;;;3.50;;
11034;SDS011;5571;48.110;-1.706;2022-07-23T02:09:07;9.23;;;3.60;;
11034;SDS011;5571;48.110;-1.706;2022-07-23T02:11:32;7.40;;;3.80;;
11034;SDS011;5571;48.110;-1.706;2022-07-23T02:13:58;7.13;;;3.80;;
11034;SDS011;5571;48.110;-1.706;2022-07-23T02:16:23;11.47;;;4.03;;
11034;SDS011;5571;48.110;-1.706;2022-07-23T02:18:48;9.37;;;3.80;;
11034;SDS011;5571;48.110;-1.706;2022-07-23T02:21:14;9.50;;;3.70;;
11034;SDS011;5571;48.110;-1.706;2022-07-23T02:23:39;6.00;;;3.73;;
11034;SDS011;5571;48.110;-1.706;2022-07-23T02:26:05;9.30;;;3.70;;
11034;SDS011;5571;48.110;-1.706;2022-07-23T02:28:30;9.87;;;4.00;;
11034;SDS011;5571;48.110;-1.706;2022-07-23T02:30:56;8.93;;;3.73;;
11034;SDS011;5571;48.110;-1.706;2022-07-23T02:33:21;14.43;;;4.10;;
11034;SDS011;5571;48.110;-1.706;2022-07-23T02:35:46;7.97;;;3.53;;
11034;SDS011;5571;48.110;-1.706;2022-07-23T02:38:12;10.17;;;3.80;;
11034;SDS011;5571;48.110;-1.706;2022-07-23T02:40:37;10.47;;;3.70;;
11034;SDS011;5571;48.110;-1.706;2022-07-23T02:43:03;10.60;;;3.87;;
11034;SDS011;5571;48.110;-1.706;2022-07-23T02:45:28;10.33;;;3.83;;
11034;SDS011;5571;48.110;-1.706;2022-07-23T02:47:54;12.40;;;3.80;;
11034;SDS011;5571;48.110;-1.706;2022-07-23T02:50:19;8.37;;;3.80;;
11034;SDS011;5571;48.110;-1.706;2022-07-23T02:52:44;10.70;;;4.00;;
11034;SDS011;5571;48.110;-1.706;2022-07-23T02:55:10;8.23;;;4.20;;
11034;SDS011;5571;48.110;-1.706;2022-07-23T02:57:36;12.17;;;4.20;;
11034;SDS011;5571;48.110;-1.706;2022-07-23T03:00:02;10.63;;;4.13;;
11034;SDS011;5571;48.110;-1.706;2022-07-23T03:02:29;10.63;;;4.50;;
11034;SDS011;5571;48.110;-1.706;2022-07-23T03:04:54;12.93;;;4.57;;
11034;SDS011;5571;48.110;-1.706;2022-07-23T03:07:19;10.57;;;4.00;;
11034;SDS011;5571;48.110;-1.706;2022-07-23T03:09:45;14.07;;;4.53;;
11034;SDS011;5571;48.110;-1.706;2022-07-23T03:12:10;8.47;;;4.30;;
11034;SDS011;5571;48.110;-1.706;2022-07-23T03:14:35;7.90;;;4.40;;
11034;SDS011;5571;48.110;-1.706;2022-07-23T03:17:01;6.87;;;3.90;;
11034;SDS011;5571;48.110;-1.706;2022-07-23T03:19:26;13.40;;;4.37;;
11034;SDS011;5571;48.110;-1.706;2022-07-23T03:21:52;6.20;;;4.17;;
11034;SDS011;5571;48.110;-1.706;2022-07-23T03:24:17;7.13;;;3.90;;
11034;SDS011;5571;48.110;-1.706;2022-07-23T03:26:43;8.40;;;3.70;;
11034;SDS011;5571;48.110;-1.706;2022-07-23T03:29:08;9.30;;;4.03;;
11034;SDS011;5571;48.110;-1.706;2022-07-23T03:31:34;11.13;;;4.20;;
11034;SDS011;5571;48.110;-1.706;2022-07-23T03:34:00;8.63;;;4.37;;
11034;SDS011;5571;48.110;-1.706;2022-07-23T03:36:25;11.57;;;3.97;;
11034;SDS011;5571;48.110;-1.706;2022-07-23T03:38:52;9.43;;;3.73;;
11034;SDS011;5571;48.110;-1.706;2022-07-23T03:41:18;7.07;;;4.20;;
11034;SDS011;5571;48.110;-1.706;2022-07-23T03:43:44;8.50;;;4.53;;
11034;SDS011;5571;48.110;-1.706;2022-07-23T03:46:09;9.37;;;4.50;;
11034;SDS011;5571;48.110;-1.706;2022-07-23T03:48:35;11.90;;;4.77;;
11034;SDS011;5571;48.110;-1.706;2022-07-23T03:51:01;8.60;;;4.20;;
11034;SDS011;5571;48.110;-1.706;2022-07-23T03:53:26;9.03;;;4.20;;
11034;SDS011;5571;48.110;-1.706;2022-07-23T03:55:51;7.47;;;4.13;;
11034;SDS011;5571;48.110;-1.706;2022-07-23T03:58:17;9.50;;;4.43;;
11034;SDS011;5571;48.110;-1.706;2022-07-23T04:00:42;8.53;;;4.30;;
11034;SDS011;5571;48.110;-1.706;2022-07-23T04:03:08;8.53;;;4.30;;
11034;SDS011;5571;48.110;-1.706;2022-07-23T04:05:33;6.93;;;4.27;;
11034;SDS011;5571;48.110;-1.706;2022-07-23T04:07:58;10.33;;;4.37;;
11034;SDS011;5571;48.110;-1.706;2022-07-23T04:10:24;7.50;;;3.90;;
11034;SDS011;5571;48.110;-1.706;2022-07-23T04:12:49;12.67;;;5.17;;
11034;SDS011;5571;48.110;-1.706;2022-07-23T04:15:15;7.60;;;4.37;;
11034;SDS011;5571;48.110;-1.706;2022-07-23T04:17:40;5.73;;;4.37;;
11034;SDS011;5571;48.110;-1.706;2022-07-23T04:20:06;8.00;;;4.70;;
11034;SDS011;5571;48.110;-1.706;2022-07-23T04:22:31;7.90;;;4.63;;
11034;SDS011;5571;48.110;-1.706;2022-07-23T04:24:57;8.93;;;4.13;;
11034;SDS011;5571;48.110;-1.706;2022-07-23T04:27:22;7.80;;;4.40;;
11034;SDS011;5571;48.110;-1.706;2022-07-23T04:29:47;9.20;;;4.47;;
11034;SDS011;5571;48.110;-1.706;2022-07-23T04:32:13;8.60;;;4.30;;
11034;SDS011;5571;48.110;-1.706;2022-07-23T04:34:38;7.40;;;4.70;;
11034;SDS011;5571;48.110;-1.706;2022-07-23T04:37:03;9.43;;;4.37;;
11034;SDS011;5571;48.110;-1.706;2022-07-23T04:39:29;12.30;;;4.80;;
11034;SDS011;5571;48.110;-1.706;2022-07-23T04:41:54;11.93;;;4.60;;
11034;SDS011;5571;48.110;-1.706;2022-07-23T04:44:20;16.27;;;4.83;;
11034;SDS011;5571;48.110;-1.706;2022-07-23T04:46:45;10.10;;;4.80;;
11034;SDS011;5571;48.110;-1.706;2022-07-23T04:49:10;8.90;;;4.20;;
11034;SDS011;5571;48.110;-1.706;2022-07-23T04:51:36;12.30;;;4.57;;
11034;SDS011;5571;48.110;-1.706;2022-07-23T04:54:01;7.63;;;4.20;;
11034;SDS011;5571;48.110;-1.706;2022-07-23T04:56:27;10.17;;;4.60;;
11034;SDS011;5571;48.110;-1.706;2022-07-23T04:58:52;8.07;;;4.20;;
11034;SDS011;5571;48.110;-1.706;2022-07-23T05:01:17;8.70;;;3.63;;
11034;SDS011;5571;48.110;-1.706;2022-07-23T05:03:43;10.07;;;4.37;;
11034;SDS011;5571;48.110;-1.706;2022-07-23T05:06:08;7.83;;;4.33;;
11034;SDS011;5571;48.110;-1.706;2022-07-23T05:08:34;10.77;;;4.37;;
11034;SDS011;5571;48.110;-1.706;2022-07-23T05:10:59;10.07;;;4.40;;
11034;SDS011;5571;48.110;-1.706;2022-07-23T05:13:25;7.87;;;4.13;;
11034;SDS011;5571;48.110;-1.706;2022-07-23T05:15:50;8.13;;;4.27;;
11034;SDS011;5571;48.110;-1.706;2022-07-23T05:18:16;9.37;;;4.77;;
11034;SDS011;5571;48.110;-1.706;2022-07-23T05:20:41;8.87;;;4.47;;
11034;SDS011;5571;48.110;-1.706;2022-07-23T05:23:07;8.43;;;4.17;;
11034;SDS011;5571;48.110;-1.706;2022-07-23T05:25:32;11.07;;;4.37;;
11034;SDS011;5571;48.110;-1.706;2022-07-23T05:27:58;9.87;;;4.20;;
11034;SDS011;5571;48.110;-1.706;2022-07-23T05:30:23;8.80;;;4.20;;
11034;SDS011;5571;48.110;-1.706;2022-07-23T05:32:49;10.57;;;5.00;;
11034;SDS011;5571;48.110;-1.706;2022-07-23T05:35:14;12.97;;;4.67;;
11034;SDS011;5571;48.110;-1.706;2022-07-23T05:37:39;6.30;;;4.10;;
11034;SDS011;5571;48.110;-1.706;2022-07-23T05:40:06;9.13;;;4.40;;
11034;SDS011;5571;48.110;-1.706;2022-07-23T05:42:36;8.90;;;4.57;;
11034;SDS011;5571;48.110;-1.706;2022-07-23T05:45:03;9.70;;;4.47;;
11034;SDS011;5571;48.110;-1.706;2022-07-23T05:47:39;6.90;;;4.43;;
11034;SDS011;5571;48.110;-1.706;2022-07-23T05:50:09;9.93;;;4.23;;
11034;SDS011;5571;48.110;-1.706;2022-07-23T05:52:35;8.93;;;4.50;;
11034;SDS011;5571;48.110;-1.706;2022-07-23T05:55:00;8.23;;;5.10;;
11034;SDS011;5571;48.110;-1.706;2022-07-23T05:57:25;9.10;;;4.83;;
11034;SDS011;5571;48.110;-1.706;2022-07-23T05:59:51;11.80;;;4.63;;
11034;SDS011;5571;48.110;-1.706;2022-07-23T06:02:16;7.13;;;4.47;;
11034;SDS011;5571;48.110;-1.706;2022-07-23T06:04:42;7.97;;;4.23;;
11034;SDS011;5571;48.110;-1.706;2022-07-23T06:07:07;7.53;;;4.93;;
11034;SDS011;5571;48.110;-1.706;2022-07-23T06:09:32;9.73;;;4.67;;
11034;SDS011;5571;48.110;-1.706;2022-07-23T06:11:58;9.57;;;4.53;;
11034;SDS011;5571;48.110;-1.706;2022-07-23T06:14:23;10.07;;;4.30;;
11034;SDS011;5571;48.110;-1.706;2022-07-23T06:16:48;8.27;;;4.30;;
11034;SDS011;5571;48.110;-1.706;2022-07-23T06:19:14;8.23;;;4.63;;
11034;SDS011;5571;48.110;-1.706;2022-07-23T06:21:39;6.63;;;4.70;;
11034;SDS011;5571;48.110;-1.706;2022-07-23T06:24:05;10.93;;;4.80;;
11034;SDS011;5571;48.110;-1.706;2022-07-23T06:26:30;9.30;;;4.60;;
11034;SDS011;5571;48.110;-1.706;2022-07-23T06:28:56;11.33;;;5.10;;
11034;SDS011;5571;48.110;-1.706;2022-07-23T06:31:21;6.23;;;4.60;;
11034;SDS011;5571;48.110;-1.706;2022-07-23T06:33:47;6.70;;;4.20;;
11034;SDS011;5571;48.110;-1.706;2022-07-23T06:36:12;7.80;;;4.90;;
11034;SDS011;5571;48.110;-1.706;2022-07-23T06:38:37;8.90;;;4.53;;
11034;SDS011;5571;48.110;-1.706;2022-07-23T06:41:03;10.00;;;4.60;;
11034;SDS011;5571;48.110;-1.706;2022-07-23T06:43:29;11.93;;;5.33;;
11034;SDS011;5571;48.110;-1.706;2022-07-23T06:45:56;9.10;;;4.20;;
11034;SDS011;5571;48.110;-1.706;2022-07-23T06:48:21;7.27;;;4.30;;
11034;SDS011;5571;48.110;-1.706;2022-07-23T06:50:47;8.77;;;4.30;;
11034;SDS011;5571;48.110;-1.706;2022-07-23T06:53:13;8.93;;;4.60;;
11034;SDS011;5571;48.110;-1.706;2022-07-23T06:55:38;6.00;;;4.37;;
11034;SDS011;5571;48.110;-1.706;2022-07-23T06:58:04;12.63;;;6.47;;
11034;SDS011;5571;48.110;-1.706;2022-07-23T07:00:30;7.37;;;4.50;;
11034;SDS011;5571;48.110;-1.706;2022-07-23T07:02:57;9.47;;;4.43;;
11034;SDS011;5571;48.110;-1.706;2022-07-23T07:05:22;8.07;;;4.73;;
11034;SDS011;5571;48.110;-1.706;2022-07-23T07:07:50;6.47;;;4.27;;
11034;SDS011;5571;48.110;-1.706;2022-07-23T07:10:15;9.53;;;4.63;;
11034;SDS011;5571;48.110;-1.706;2022-07-23T07:12:42;9.03;;;4.60;;
11034;SDS011;5571;48.110;-1.706;2022-07-23T07:15:08;9.33;;;5.00;;
11034;SDS011;5571;48.110;-1.706;2022-07-23T07:17:33;8.73;;;4.20;;
11034;SDS011;5571;48.110;-1.706;2022-07-23T07:19:59;7.87;;;4.20;;
11034;SDS011;5571;48.110;-1.706;2022-07-23T07:22:24;6.80;;;4.13;;
11034;SDS011;5571;48.110;-1.706;2022-07-23T07:24:50;9.73;;;4.57;;
11034;SDS011;5571;48.110;-1.706;2022-07-23T07:27:15;5.17;;;3.87;;
11034;SDS011;5571;48.110;-1.706;2022-07-23T07:29:40;6.20;;;4.10;;
11034;SDS011;5571;48.110;-1.706;2022-07-23T07:32:06;8.77;;;3.87;;
11034;SDS011;5571;48.110;-1.706;2022-07-23T07:34:31;10.10;;;4.70;;
11034;SDS011;5571;48.110;-1.706;2022-07-23T07:36:56;7.07;;;4.50;;
11034;SDS011;5571;48.110;-1.706;2022-07-23T07:39:22;6.07;;;4.10;;
11034;SDS011;5571;48.110;-1.706;2022-07-23T07:41:47;8.30;;;4.00;;
11034;SDS011;5571;48.110;-1.706;2022-07-23T07:44:12;7.13;;;3.70;;
11034;SDS011;5571;48.110;-1.706;2022-07-23T07:46:38;5.97;;;3.63;;
11034;SDS011;5571;48.110;-1.706;2022-07-23T07:49:03;5.68;;;3.35;;
11034;SDS011;5571;48.110;-1.706;2022-07-23T07:51:29;6.70;;;4.35;;
11034;SDS011;5571;48.110;-1.706;2022-07-23T07:53:54;8.50;;;3.85;;
11034;SDS011;5571;48.110;-1.706;2022-07-23T07:56:20;8.90;;;3.90;;
11034;SDS011;5571;48.110;-1.706;2022-07-23T07:58:45;6.95;;;3.15;;
11034;SDS011;5571;48.110;-1.706;2022-07-23T08:01:10;6.30;;;3.10;;
11034;SDS011;5571;48.110;-1.706;2022-07-23T08:03:36;13.55;;;4.22;;
11034;SDS011;5571;48.110;-1.706;2022-07-23T08:06:01;9.02;;;3.58;;
11034;SDS011;5571;48.110;-1.706;2022-07-23T08:08:26;8.95;;;3.50;;
11034;SDS011;5571;48.110;-1.706;2022-07-23T08:10:52;4.05;;;2.90;;
11034;SDS011;5571;48.110;-1.706;2022-07-23T08:13:17;9.80;;;3.30;;
11034;SDS011;5571;48.110;-1.706;2022-07-23T08:15:43;8.50;;;3.28;;
11034;SDS011;5571;48.110;-1.706;2022-07-23T08:18:09;9.00;;;2.92;;
11034;SDS011;5571;48.110;-1.706;2022-07-23T08:20:34;9.55;;;3.20;;
11034;SDS011;5571;48.110;-1.706;2022-07-23T08:23:04;7.78;;;3.00;;
11034;SDS011;5571;48.110;-1.706;2022-07-23T08:25:38;8.02;;;3.15;;
11034;SDS011;5571;48.110;-1.706;2022-07-23T08:28:07;5.30;;;2.83;;
11034;SDS011;5571;48.110;-1.706;2022-07-23T08:30:34;12.30;;;3.00;;
11034;SDS011;5571;48.110;-1.706;2022-07-23T08:33:02;9.52;;;2.95;;
11034;SDS011;5571;48.110;-1.706;2022-07-23T08:35:30;5.88;;;2.42;;
11034;SDS011;5571;48.110;-1.706;2022-07-23T08:37:57;8.10;;;2.78;;
11034;SDS011;5571;48.110;-1.706;2022-07-23T08:40:27;5.03;;;2.72;;
11034;SDS011;5571;48.110;-1.706;2022-07-23T08:42:53;7.07;;;2.40;;
11034;SDS011;5571;48.110;-1.706;2022-07-23T08:45:20;3.70;;;2.25;;
11034;SDS011;5571;48.110;-1.706;2022-07-23T08:47:50;4.90;;;2.92;;
11034;SDS011;5571;48.110;-1.706;2022-07-23T08:50:23;4.43;;;2.58;;
11034;SDS011;5571;48.110;-1.706;2022-07-23T08:52:50;5.13;;;2.20;;
11034;SDS011;5571;48.110;-1.706;2022-07-23T08:55:20;5.53;;;2.33;;
11034;SDS011;5571;48.110;-1.706;2022-07-23T08:57:50;6.30;;;2.58;;
11034;SDS011;5571;48.110;-1.706;2022-07-23T09:00:17;4.75;;;2.63;;
11034;SDS011;5571;48.110;-1.706;2022-07-23T09:02:44;4.97;;;2.42;;
11034;SDS011;5571;48.110;-1.706;2022-07-23T09:05:10;8.70;;;3.05;;
11034;SDS011;5571;48.110;-1.706;2022-07-23T09:07:37;4.40;;;2.38;;
11034;SDS011;5571;48.110;-1.706;2022-07-23T09:10:23;6.65;;;2.20;;
11034;SDS011;5571;48.110;-1.706;2022-07-23T09:12:48;4.40;;;1.98;;
11034;SDS011;5571;48.110;-1.706;2022-07-23T09:15:14;6.18;;;2.20;;
11034;SDS011;5571;48.110;-1.706;2022-07-23T09:17:39;5.75;;;2.17;;
11034;SDS011;5571;48.110;-1.706;2022-07-23T09:20:13;4.10;;;2.20;;
11034;SDS011;5571;48.110;-1.706;2022-07-23T09:22:47;4.65;;;2.20;;
11034;SDS011;5571;48.110;-1.706;2022-07-23T09:25:15;8.23;;;2.50;;
11034;SDS011;5571;48.110;-1.706;2022-07-23T09:30:12;4.60;;;2.30;;
11034;SDS011;5571;48.110;-1.706;2022-07-23T09:32:41;6.30;;;2.42;;
11034;SDS011;5571;48.110;-1.706;2022-07-23T09:35:07;4.40;;;2.38;;
11034;SDS011;5571;48.110;-1.706;2022-07-23T09:37:33;5.82;;;2.30;;
11034;SDS011;5571;48.110;-1.706;2022-07-23T09:40:08;8.57;;;3.08;;
11034;SDS011;5571;48.110;-1.706;2022-07-23T09:42:36;5.35;;;2.78;;
11034;SDS011;5571;48.110;-1.706;2022-07-23T09:45:02;5.47;;;2.40;;
11034;SDS011;5571;48.110;-1.706;2022-07-23T09:47:29;4.55;;;2.10;;
11034;SDS011;5571;48.110;-1.706;2022-07-23T09:52:30;3.15;;;2.00;;
11034;SDS011;5571;48.110;-1.706;2022-07-23T09:55:01;5.40;;;2.13;;
11034;SDS011;5571;48.110;-1.706;2022-07-23T09:57:28;4.53;;;1.90;;
11034;SDS011;5571;48.110;-1.706;2022-07-23T09:59:54;3.17;;;1.80;;
11034;SDS011;5571;48.110;-1.706;2022-07-23T10:02:23;3.92;;;2.05;;
11034;SDS011;5571;48.110;-1.706;2022-07-23T10:04:50;3.25;;;1.63;;
11034;SDS011;5571;48.110;-1.706;2022-07-23T10:07:18;4.03;;;2.17;;
11034;SDS011;5571;48.110;-1.706;2022-07-23T10:09:47;5.70;;;2.05;;
11034;SDS011;5571;48.110;-1.706;2022-07-23T10:12:15;4.32;;;2.10;;
11034;SDS011;5571;48.110;-1.706;2022-07-23T10:14:47;6.03;;;2.17;;
11034;SDS011;5571;48.110;-1.706;2022-07-23T10:17:13;7.65;;;2.03;;
11034;SDS011;5571;48.110;-1.706;2022-07-23T10:19:38;2.88;;;1.70;;
11034;SDS011;5571;48.110;-1.706;2022-07-23T10:22:09;3.55;;;2.10;;
11034;SDS011;5571;48.110;-1.706;2022-07-23T10:33:15;4.43;;;1.95;;
11034;SDS011;5571;48.110;-1.706;2022-07-23T10:35:54;3.28;;;1.70;;
11034;SDS011;5571;48.110;-1.706;2022-07-23T10:41:01;4.95;;;2.08;;
11034;SDS011;5571;48.110;-1.706;2022-07-23T10:43:30;3.92;;;1.75;;
11034;SDS011;5571;48.110;-1.706;2022-07-23T10:45:57;2.42;;;1.63;;
11034;SDS011;5571;48.110;-1.706;2022-07-23T10:57:13;2.50;;;1.90;;
11034;SDS011;5571;48.110;-1.706;2022-07-23T11:02:28;4.55;;;1.88;;
11034;SDS011;5571;48.110;-1.706;2022-07-23T11:04:58;1.88;;;1.50;;
11034;SDS011;5571;48.110;-1.706;2022-07-23T11:07:25;2.80;;;1.77;;
11034;SDS011;5571;48.110;-1.706;2022-07-23T11:09:51;3.30;;;1.70;;
11034;SDS011;5571;48.110;-1.706;2022-07-23T11:17:25;4.35;;;1.55;;
11034;SDS011;5571;48.110;-1.706;2022-07-23T11:22:35;3.67;;;1.80;;
11034;SDS011;5571;48.110;-1.706;2022-07-23T11:25:01;3.97;;;1.50;;
11034;SDS011;5571;48.110;-1.706;2022-07-23T11:27:44;1.92;;;1.73;;
11034;SDS011;5571;48.110;-1.706;2022-07-23T11:32:51;4.20;;;1.63;;
11034;SDS011;5571;48.110;-1.706;2022-07-23T11:35:22;3.42;;;1.60;;
11034;SDS011;5571;48.110;-1.706;2022-07-23T11:37:50;3.08;;;1.52;;
11034;SDS011;5571;48.110;-1.706;2022-07-23T11:40:24;4.60;;;1.40;;
11034;SDS011;5571;48.110;-1.706;2022-07-23T11:42:57;2.90;;;1.70;;
11034;SDS011;5571;48.110;-1.706;2022-07-23T11:45:28;4.32;;;1.90;;
11034;SDS011;5571;48.110;-1.706;2022-07-23T11:47:59;2.40;;;1.38;;
11034;SDS011;5571;48.110;-1.706;2022-07-23T11:50:25;2.10;;;1.40;;
11034;SDS011;5571;48.110;-1.706;2022-07-23T11:52:51;1.90;;;1.55;;
11034;SDS011;5571;48.110;-1.706;2022-07-23T11:55:17;2.47;;;1.42;;
11034;SDS011;5571;48.110;-1.706;2022-07-23T11:57:44;4.05;;;2.05;;
11034;SDS011;5571;48.110;-1.706;2022-07-23T12:00:14;3.63;;;1.48;;
11034;SDS011;5571;48.110;-1.706;2022-07-23T12:02:43;2.85;;;1.60;;
11034;SDS011;5571;48.110;-1.706;2022-07-23T12:05:11;3.85;;;1.60;;
11034;SDS011;5571;48.110;-1.706;2022-07-23T12:07:45;2.35;;;1.50;;
11034;SDS011;5571;48.110;-1.706;2022-07-23T12:10:20;2.25;;;1.42;;
11034;SDS011;5571;48.110;-1.706;2022-07-23T12:15:16;3.83;;;1.50;;
11034;SDS011;5571;48.110;-1.706;2022-07-23T12:17:44;5.20;;;1.42;;
11034;SDS011;5571;48.110;-1.706;2022-07-23T12:20:13;3.42;;;1.33;;
11034;SDS011;5571;48.110;-1.706;2022-07-23T12:23:00;2.78;;;1.38;;
11034;SDS011;5571;48.110;-1.706;2022-07-23T12:25:29;4.47;;;1.70;;
11034;SDS011;5571;48.110;-1.706;2022-07-23T12:30:31;3.80;;;1.77;;
11034;SDS011;5571;48.110;-1.706;2022-07-23T12:33:03;2.67;;;1.40;;
11034;SDS011;5571;48.110;-1.706;2022-07-23T12:35:37;1.95;;;1.40;;
11034;SDS011;5571;48.110;-1.706;2022-07-23T12:38:06;3.22;;;1.50;;
11034;SDS011;5571;48.110;-1.706;2022-07-23T12:40:40;3.58;;;1.50;;
11034;SDS011;5571;48.110;-1.706;2022-07-23T12:43:09;5.93;;;1.58;;
11034;SDS011;5571;48.110;-1.706;2022-07-23T12:48:08;4.82;;;1.60;;
11034;SDS011;5571;48.110;-1.706;2022-07-23T12:50:44;4.45;;;1.58;;
11034;SDS011;5571;48.110;-1.706;2022-07-23T12:53:16;1.70;;;1.60;;
11034;SDS011;5571;48.110;-1.706;2022-07-23T12:55:44;2.13;;;1.58;;
11034;SDS011;5571;48.110;-1.706;2022-07-23T12:58:15;2.20;;;1.65;;
11034;SDS011;5571;48.110;-1.706;2022-07-23T13:05:55;1.55;;;1.45;;
11034;SDS011;5571;48.110;-1.706;2022-07-23T13:08:21;3.70;;;1.40;;
11034;SDS011;5571;48.110;-1.706;2022-07-23T13:10:47;3.33;;;1.33;;
11034;SDS011;5571;48.110;-1.706;2022-07-23T13:13:14;4.78;;;1.45;;
11034;SDS011;5571;48.110;-1.706;2022-07-23T13:15:40;2.25;;;1.17;;
11034;SDS011;5571;48.110;-1.706;2022-07-23T13:18:07;1.65;;;1.33;;
11034;SDS011;5571;48.110;-1.706;2022-07-23T13:20:32;1.30;;;1.30;;
11034;SDS011;5571;48.110;-1.706;2022-07-23T13:22:59;2.00;;;1.30;;
11034;SDS011;5571;48.110;-1.706;2022-07-23T13:25:26;1.30;;;1.10;;
11034;SDS011;5571;48.110;-1.706;2022-07-23T13:27:51;1.52;;;1.42;;
11034;SDS011;5571;48.110;-1.706;2022-07-23T13:30:17;2.90;;;1.45;;
11034;SDS011;5571;48.110;-1.706;2022-07-23T13:32:42;1.60;;;1.50;;
11034;SDS011;5571;48.110;-1.706;2022-07-23T13:35:08;3.67;;;1.45;;
11034;SDS011;5571;48.110;-1.706;2022-07-23T13:37:33;2.28;;;1.80;;
11034;SDS011;5571;48.110;-1.706;2022-07-23T13:39:59;2.08;;;1.20;;
11034;SDS011;5571;48.110;-1.706;2022-07-23T13:42:24;1.40;;;1.30;;
11034;SDS011;5571;48.110;-1.706;2022-07-23T13:44:50;2.08;;;1.20;;
11034;SDS011;5571;48.110;-1.706;2022-07-23T13:47:15;1.83;;;1.20;;
11034;SDS011;5571;48.110;-1.706;2022-07-23T13:49:40;1.85;;;1.27;;
11034;SDS011;5571;48.110;-1.706;2022-07-23T13:52:06;1.42;;;1.20;;
11034;SDS011;5571;48.110;-1.706;2022-07-23T13:54:31;1.60;;;1.30;;
11034;SDS011;5571;48.110;-1.706;2022-07-23T13:56:57;3.60;;;1.15;;
11034;SDS011;5571;48.110;-1.706;2022-07-23T13:59:22;3.95;;;1.20;;
11034;SDS011;5571;48.110;-1.706;2022-07-23T14:01:48;1.20;;;1.20;;
11034;SDS011;5571;48.110;-1.706;2022-07-23T14:04:13;1.85;;;1.08;;
11034;SDS011;5571;48.110;-1.706;2022-07-23T14:06:38;1.60;;;1.40;;
11034;SDS011;5571;48.110;-1.706;2022-07-23T14:09:04;1.50;;;1.25;;
11034;SDS011;5571;48.110;-1.706;2022-07-23T14:11:29;1.00;;;0.98;;
11034;SDS011;5571;48.110;-1.706;2022-07-23T14:13:56;1.42;;;1.00;;
11034;SDS011;5571;48.110;-1.706;2022-07-23T14:16:21;0.95;;;0.95;;
11034;SDS011;5571;48.110;-1.706;2022-07-23T14:18:47;1.50;;;1.30;;
11034;SDS011;5571;48.110;-1.706;2022-07-23T14:21:12;1.77;;;1.38;;
11034;SDS011;5571;48.110;-1.706;2022-07-23T14:23:38;2.35;;;1.13;;
11034;SDS011;5571;48.110;-1.706;2022-07-23T14:26:03;2.20;;;1.38;;
11034;SDS011;5571;48.110;-1.706;2022-07-23T14:28:28;1.50;;;1.40;;
11034;SDS011;5571;48.110;-1.706;2022-07-23T14:30:54;1.98;;;1.25;;
11034;SDS011;5571;48.110;-1.706;2022-07-23T14:33:19;1.63;;;1.05;;
11034;SDS011;5571;48.110;-1.706;2022-07-23T14:35:45;1.48;;;1.40;;
11034;SDS011;5571;48.110;-1.706;2022-07-23T14:38:11;1.63;;;1.52;;
11034;SDS011;5571;48.110;-1.706;2022-07-23T14:40:37;2.50;;;1.60;;
11034;SDS011;5571;48.110;-1.706;2022-07-23T14:43:02;1.60;;;1.45;;
11034;SDS011;5571;48.110;-1.706;2022-07-23T14:45:27;6.63;;;1.42;;
11034;SDS011;5571;48.110;-1.706;2022-07-23T14:47:55;1.15;;;1.13;;
11034;SDS011;5571;48.110;-1.706;2022-07-23T14:50:20;1.05;;;0.90;;
11034;SDS011;5571;48.110;-1.706;2022-07-23T14:52:46;1.85;;;1.15;;
11034;SDS011;5571;48.110;-1.706;2022-07-23T14:55:11;3.58;;;1.42;;
11034;SDS011;5571;48.110;-1.706;2022-07-23T14:57:37;1.75;;;1.17;;
11034;SDS011;5571;48.110;-1.706;2022-07-23T15:00:03;0.98;;;0.95;;
11034;SDS011;5571;48.110;-1.706;2022-07-23T15:02:29;2.42;;;1.30;;
11034;SDS011;5571;48.110;-1.706;2022-07-23T15:04:55;3.72;;;1.40;;
11034;SDS011;5571;48.110;-1.706;2022-07-23T15:07:23;1.95;;;0.93;;
11034;SDS011;5571;48.110;-1.706;2022-07-23T15:09:48;2.95;;;1.33;;
11034;SDS011;5571;48.110;-1.706;2022-07-23T15:12:14;1.23;;;1.13;;
11034;SDS011;5571;48.110;-1.706;2022-07-23T15:14:39;1.48;;;1.20;;
11034;SDS011;5571;48.110;-1.706;2022-07-23T15:17:04;1.63;;;1.30;;
11034;SDS011;5571;48.110;-1.706;2022-07-23T15:19:30;2.35;;;1.48;;
11034;SDS011;5571;48.110;-1.706;2022-07-23T15:21:55;1.10;;;1.10;;
11034;SDS011;5571;48.110;-1.706;2022-07-23T15:24:21;1.80;;;1.23;;
11034;SDS011;5571;48.110;-1.706;2022-07-23T15:26:46;1.35;;;1.27;;
11034;SDS011;5571;48.110;-1.706;2022-07-23T15:29:11;1.38;;;1.27;;
11034;SDS011;5571;48.110;-1.706;2022-07-23T15:31:37;1.40;;;1.00;;